Time;durP1;ratioP1;P1;durP2;ratioP2;P2;SDS_P1;SDS_P2;PMS_P1;PMS_P2;Temp;Humidity;BMP_temperature;BMP_pressure;BME280_temperature;BME280_humidity;BME280_pressure;Samples;Min_cycle;Max_cycle;Signal;HPM_P1;HPM_P2
2020/12/15 00:00:35;;;;;;;51.80;21.13;;;;;;;0.39;92.80;99935.06;3486399;28;20053;-52
2020/12/15 00:02:16;;;;;;;57.67;21.48;;;;;;;0.41;93.02;99932.59;3486059;28;20616;-48
2020/12/15 00:03:58;;;;;;;50.83;19.73;;;;;;;0.40;92.78;99934.28;3486077;28;20426;-51
2020/12/15 00:05:40;;;;;;;62.08;21.55;;;;;;;0.41;92.53;99935.16;3490496;28;20497;-48
2020/12/15 00:07:21;;;;;;;46.60;18.98;;;;;;;0.41;92.79;99936.03;3491154;28;20055;-48
2020/12/15 00:09:03;;;;;;;52.40;20.02;;;;;;;0.41;92.91;99940.25;3485865;28;20060;-48
2020/12/15 00:10:46;;;;;;;50.65;19.33;;;;;;;0.40;92.63;99938.50;3489728;28;20082;-50
2020/12/15 00:12:28;;;;;;;44.50;18.52;;;;;;;0.41;92.54;99937.72;3488971;28;20048;-49
2020/12/15 00:14:09;;;;;;;48.33;19.42;;;;;;;0.41;92.58;99940.25;3485998;28;20498;-49
2020/12/15 00:15:51;;;;;;;55.28;21.73;;;;;;;0.40;92.55;99947.06;3487447;28;20087;-49
2020/12/15 00:17:32;;;;;;;51.10;21.27;;;;;;;0.39;92.57;99952.94;3486697;28;20076;-48
2020/12/15 00:19:14;;;;;;;48.83;19.25;;;;;;;0.39;92.78;99944.41;3487415;28;20560;-43
2020/12/15 00:20:55;;;;;;;46.95;20.38;;;;;;;0.37;92.68;99944.31;3484215;28;20064;-43
2020/12/15 00:22:37;;;;;;;51.55;20.45;;;;;;;0.37;92.78;99956.19;3488532;28;20447;-43
2020/12/15 00:24:18;;;;;;;48.40;20.05;;;;;;;0.37;92.46;99951.09;3487757;28;20425;-45
2020/12/15 00:26:00;;;;;;;49.10;20.10;;;;;;;0.37;92.60;99951.97;3486963;28;20612;-43
2020/12/15 00:27:42;;;;;;;55.47;22.70;;;;;;;0.37;92.62;99951.97;3487334;28;20501;-43
2020/12/15 00:29:23;;;;;;;50.90;19.75;;;;;;;0.37;92.56;99954.53;3491229;28;20048;-44
2020/12/15 00:31:05;;;;;;;51.67;19.85;;;;;;;0.38;92.48;99955.38;3488238;28;20048;-43
2020/12/15 00:32:47;;;;;;;56.63;21.52;;;;;;;0.38;92.64;99945.19;3487525;28;20048;-47
2020/12/15 00:34:28;;;;;;;52.38;20.30;;;;;;;0.39;92.82;99949.50;3487697;28;20076;-43
2020/12/15 00:36:15;;;;;;;50.05;20.80;;;;;;;0.40;92.59;99957.25;3486963;28;20508;-43
2020/12/15 00:37:57;;;;;;;50.50;19.05;;;;;;;0.41;92.91;99958.13;3487645;28;20152;-43
2020/12/15 00:39:38;;;;;;;50.03;20.85;;;;;;;0.41;92.91;99950.47;3487595;28;20085;-43
2020/12/15 00:41:21;;;;;;;44.20;19.58;;;;;;;0.42;92.55;99957.34;3488323;28;20048;-44
2020/12/15 00:43:02;;;;;;;49.65;18.77;;;;;;;0.42;92.60;99960.78;3488817;28;20565;-44
2020/12/15 00:44:44;;;;;;;40.63;17.75;;;;;;;0.43;92.63;99964.19;3488430;28;20391;-45
2020/12/15 00:46:25;;;;;;;47.75;19.30;;;;;;;0.42;92.58;99965.88;3489033;28;20102;-44
2020/12/15 00:48:07;;;;;;;46.35;18.25;;;;;;;0.41;92.34;99966.66;3488902;28;20048;-44
2020/12/15 00:49:48;;;;;;;50.13;20.05;;;;;;;0.41;92.56;99966.66;3486569;28;20048;-44
2020/12/15 00:51:30;;;;;;;47.72;18.85;;;;;;;0.41;92.33;99961.56;3489883;28;20497;-43
2020/12/15 00:53:11;;;;;;;44.75;20.05;;;;;;;0.41;92.26;99963.22;3489514;28;20080;-43
2020/12/15 00:54:53;;;;;;;46.83;19.35;;;;;;;0.40;92.33;99961.47;3488322;28;20130;-43
2020/12/15 00:56:35;;;;;;;45.58;20.13;;;;;;;0.39;92.52;99962.28;3488872;28;20463;-49
2020/12/15 00:58:17;;;;;;;46.38;18.88;;;;;;;0.39;92.41;99954.63;3487929;28;20048;-48
2020/12/15 00:59:58;;;;;;;49.83;20.20;;;;;;;0.40;92.41;99961.47;3487078;28;20053;-49
2020/12/15 01:01:40;;;;;;;51.47;20.35;;;;;;;0.38;92.48;99958.84;3488443;28;20098;-44
2020/12/15 01:03:22;;;;;;;47.05;19.60;;;;;;;0.39;92.33;99969.94;3489313;28;20569;-43
2020/12/15 01:05:03;;;;;;;50.25;19.73;;;;;;;0.39;92.45;99962.28;3487797;28;20468;-43
2020/12/15 01:06:48;;;;;;;53.80;19.63;;;;;;;0.40;92.53;99964.00;3489255;28;20435;-44
2020/12/15 01:08:30;;;;;;;48.47;20.30;;;;;;;0.41;92.70;99971.75;3488960;28;20075;-43
2020/12/15 01:10:24;;;;;;;;;;;;;;;0.42;92.67;99962.47;3488020;28;20052;-43
2020/12/15 01:12:07;;;;;;;43.10;18.45;;;;;;;0.42;92.54;99959.91;3489498;28;19974;-44
2020/12/15 01:13:49;;;;;;;44.38;17.88;;;;;;;0.41;92.28;99959.00;3484755;28;20068;-45
2020/12/15 01:15:30;;;;;;;38.75;17.70;;;;;;;0.41;92.45;99950.47;3487540;28;20166;-43
2020/12/15 01:17:12;;;;;;;43.42;18.50;;;;;;;0.41;92.40;99960.69;3485953;28;20045;-43
2020/12/15 01:18:53;;;;;;;41.58;17.58;;;;;;;0.40;92.38;99953.81;3486499;28;20110;-43
2020/12/15 01:20:34;;;;;;;38.30;17.00;;;;;;;0.40;92.47;99954.69;3487239;28;20109;-44
2020/12/15 01:22:16;;;;;;;46.63;18.15;;;;;;;0.39;92.63;99952.94;3488688;28;20286;-48
2020/12/15 01:23:57;;;;;;;39.50;16.05;;;;;;;0.37;92.38;99951.97;3488990;28;20053;-47
2020/12/15 01:25:39;;;;;;;41.17;17.35;;;;;;;0.36;92.60;99950.19;3488629;28;20531;-48
2020/12/15 01:27:21;;;;;;;44.38;17.30;;;;;;;0.35;92.43;99951.00;3487322;28;20477;-48
2020/12/15 01:29:03;;;;;;;37.22;16.08;;;;;;;0.34;92.40;99959.44;3489548;28;20425;-48
2020/12/15 01:30:44;;;;;;;36.33;14.82;;;;;;;0.34;92.67;99949.22;3487167;28;20115;-48
2020/12/15 01:32:25;;;;;;;34.90;15.95;;;;;;;0.36;92.62;99954.41;3489651;28;20102;-48
2020/12/15 01:34:07;;;;;;;35.80;16.23;;;;;;;0.36;92.47;99951.88;3489266;28;20047;-43
2020/12/15 01:35:48;;;;;;;36.00;16.67;;;;;;;0.35;92.76;99950.13;3488205;28;20048;-43
2020/12/15 01:37:30;;;;;;;40.92;16.25;;;;;;;0.36;92.64;99951.88;3488701;28;20484;-43
2020/12/15 01:39:11;;;;;;;38.90;17.02;;;;;;;0.37;92.54;99963.84;3487933;28;20079;-48
2020/12/15 01:40:53;;;;;;;36.30;16.52;;;;;;;0.38;92.75;99957.94;3496209;28;20063;-49
2020/12/15 01:42:35;;;;;;;41.47;18.05;;;;;;;0.37;92.70;99957.06;3490771;28;20080;-43
2020/12/15 01:44:17;;;;;;;40.88;17.50;;;;;;;0.38;92.80;99957.94;3496206;28;20059;-43
2020/12/15 01:45:58;;;;;;;39.78;16.35;;;;;;;0.38;92.72;99958.84;3492132;28;20049;-43
2020/12/15 01:47:42;;;;;;;44.30;18.15;;;;;;;0.38;92.69;99963.03;3495687;28;20072;-43
2020/12/15 01:49:24;;;;;;;;;;;;;;;0.37;92.57;99962.16;3492542;28;20045;-48
2020/12/15 01:51:05;;;;;;;33.65;15.35;;;;;;;0.39;92.85;99965.69;3484700;28;19967;-48
2020/12/15 01:52:48;;;;;;;39.58;16.08;;;;;;;0.39;92.87;99959.72;3486460;28;20448;-49
2020/12/15 01:54:29;;;;;;;36.53;16.95;;;;;;;0.39;92.70;99960.59;3480303;28;20490;-48
2020/12/15 01:56:11;;;;;;;39.42;15.80;;;;;;;0.41;92.85;99953.03;3486772;28;20040;-48
2020/12/15 01:57:54;;;;;;;38.97;16.67;;;;;;;0.40;92.97;99947.06;3483711;28;20520;-48
2020/12/15 01:59:35;;;;;;;34.60;16.13;;;;;;;0.41;92.53;99956.44;3493647;28;20075;-48
2020/12/15 02:01:16;;;;;;;39.85;16.60;;;;;;;0.41;92.60;99955.56;3493634;28;20141;-48
2020/12/15 02:02:58;;;;;;;43.83;17.00;;;;;;;0.42;92.77;99949.69;3487495;28;20151;-43
2020/12/15 02:04:39;;;;;;;32.22;15.75;;;;;;;0.41;92.51;99948.78;3482295;28;20076;-48
2020/12/15 02:06:24;;;;;;;36.58;16.25;;;;;;;0.40;92.56;99956.34;3493370;28;20055;-48
2020/12/15 02:08:05;;;;;;;37.13;15.70;;;;;;;0.40;92.55;99948.69;3493815;28;20083;-49
2020/12/15 02:09:47;;;;;;;37.08;15.38;;;;;;;0.42;92.60;99952.25;3494286;28;20048;-43
2020/12/15 02:11:29;;;;;;;35.95;14.68;;;;;;;0.43;92.89;99956.53;3493298;28;20076;-43
2020/12/15 02:13:11;;;;;;;38.83;16.55;;;;;;;0.42;92.83;99952.25;3485904;28;20481;-43
2020/12/15 02:14:53;;;;;;;40.55;17.00;;;;;;;0.44;92.67;99948.09;3485699;28;20041;-43
2020/12/15 02:16:37;;;;;;;38.13;14.85;;;;;;;0.45;92.75;99947.31;3486696;28;20068;-43
2020/12/15 02:18:19;;;;;;;35.90;14.93;;;;;;;0.45;92.92;99942.19;3486870;28;20577;-44
2020/12/15 02:20:01;;;;;;;30.77;14.57;;;;;;;0.45;92.92;99944.75;3494730;28;20080;-48
2020/12/15 02:21:51;;;;;;;31.75;14.65;;;;;;;0.46;92.56;99943.09;3490987;28;20183;-48
2020/12/15 02:23:32;;;;;;;31.88;15.23;;;;;;;0.46;92.88;99946.53;3481969;28;20102;-44
2020/12/15 02:25:14;;;;;;;35.63;14.13;;;;;;;0.46;92.69;99949.06;3485041;28;20110;-43
2020/12/15 02:26:55;;;;;;;32.05;14.45;;;;;;;0.44;92.61;99950.66;3483271;28;20075;-48
2020/12/15 02:28:37;;;;;;;30.27;14.27;;;;;;;0.44;92.57;99945.56;3489718;28;20472;-43
2020/12/15 02:30:19;;;;;;;30.58;13.27;;;;;;;0.42;92.37;99953.13;3484488;28;20441;-49
2020/12/15 02:32:00;;;;;;;31.77;12.65;;;;;;;0.42;92.76;99953.13;3490649;28;20044;-43
2020/12/15 02:33:43;;;;;;;32.88;14.15;;;;;;;0.42;92.48;99952.25;3484643;28;20053;-49
2020/12/15 02:35:25;;;;;;;34.28;13.27;;;;;;;0.42;92.44;99952.25;3491125;28;20079;-47
2020/12/15 02:37:08;;;;;;;34.22;13.93;;;;;;;0.40;92.43;99948.69;3498311;28;20083;-48
2020/12/15 02:38:49;;;;;;;28.73;13.27;;;;;;;0.38;92.39;99946.09;3492110;28;20425;-49
2020/12/15 02:40:30;;;;;;;33.22;13.60;;;;;;;0.38;92.52;99940.97;3484787;28;20286;-48
2020/12/15 02:42:12;;;;;;;30.48;13.82;;;;;;;0.39;92.77;99942.72;3491723;28;20090;-48
2020/12/15 02:43:54;;;;;;;29.15;13.27;;;;;;;0.38;92.34;99943.53;3484298;28;20053;-48
2020/12/15 02:45:36;;;;;;;30.13;13.23;;;;;;;0.37;92.67;99949.41;3493009;28;20147;-43
2020/12/15 02:47:17;;;;;;;33.50;13.15;;;;;;;0.37;92.43;99951.09;3484203;28;20526;-43
2020/12/15 02:48:59;;;;;;;30.77;13.20;;;;;;;0.37;92.34;99951.97;3492332;28;20064;-44
2020/12/15 02:50:41;;;;;;;31.98;13.80;;;;;;;0.36;92.61;99947.63;3484167;28;20053;-43
2020/12/15 02:52:23;;;;;;;35.67;14.10;;;;;;;0.38;92.66;99952.84;3490543;28;20502;-43
2020/12/15 02:54:04;;;;;;;31.90;14.95;;;;;;;0.37;92.72;99944.31;3484635;28;20057;-48
2020/12/15 02:55:46;;;;;;;27.67;12.45;;;;;;;0.38;92.82;99951.19;3495990;28;20083;-43
2020/12/15 02:57:27;;;;;;;31.27;13.10;;;;;;;0.38;92.44;99946.09;3497225;28;20094;-43
2020/12/15 02:59:09;;;;;;;27.83;12.73;;;;;;;0.39;92.85;99941.84;3495901;28;20048;-43
2020/12/15 03:00:51;;;;;;;34.45;14.27;;;;;;;0.40;92.49;99943.59;3496067;28;20045;-43
2020/12/15 03:02:32;;;;;;;29.88;12.90;;;;;;;0.39;92.77;99941.84;3489841;28;20051;-43
2020/12/15 03:04:14;;;;;;;25.60;12.90;;;;;;;0.39;92.44;99939.31;3484375;28;20091;-43
2020/12/15 03:05:55;;;;;;;30.95;13.02;;;;;;;0.39;92.54;99944.41;3495897;28;20527;-45
2020/12/15 03:07:37;;;;;;;31.58;15.88;;;;;;;0.39;92.74;99939.31;3497181;28;20056;-48
2020/12/15 03:09:19;;;;;;;32.38;14.70;;;;;;;0.39;92.67;99944.41;3497321;28;20489;-43
2020/12/15 03:11:01;;;;;;;31.77;12.23;;;;;;;0.38;92.66;99946.09;3495204;28;20084;-43
2020/12/15 03:12:43;;;;;;;32.63;14.68;;;;;;;0.38;92.44;99945.19;3487047;28;20575;-43
2020/12/15 03:14:24;;;;;;;31.40;13.63;;;;;;;0.39;92.78;99939.31;3487324;28;20110;-48
2020/12/15 03:16:06;;;;;;;29.13;12.85;;;;;;;0.40;92.39;99946.16;3485749;28;20053;-48
2020/12/15 03:17:47;;;;;;;29.73;12.40;;;;;;;0.40;92.74;99941.03;3488417;28;20056;-48
2020/12/15 03:19:29;;;;;;;28.58;12.88;;;;;;;0.40;92.42;99939.41;3484253;28;20567;-43
2020/12/15 03:21:15;;;;;;;33.88;12.95;;;;;;;0.42;92.71;99945.47;3487105;28;20082;-43
2020/12/15 03:22:57;;;;;;;27.75;12.63;;;;;;;0.41;92.61;99942.81;3485212;28;20061;-43
2020/12/15 03:24:38;;;;;;;32.15;13.88;;;;;;;0.40;92.66;99949.59;3490030;28;20132;-44
2020/12/15 03:26:19;;;;;;;35.33;13.98;;;;;;;0.39;92.53;99955.47;3495558;28;20055;-43
2020/12/15 03:28:01;;;;;;;27.08;13.32;;;;;;;0.40;92.56;99956.34;3493699;28;20083;-43
2020/12/15 03:29:43;;;;;;;34.42;14.93;;;;;;;0.39;92.53;99960.59;3497738;28;20053;-44
2020/12/15 03:31:24;;;;;;;34.63;14.60;;;;;;;0.40;92.48;99964.00;3492694;28;20379;-43
2020/12/15 03:33:06;;;;;;;30.35;14.02;;;;;;;0.41;92.59;99965.78;3483298;28;20474;-43
2020/12/15 03:34:47;;;;;;;31.02;13.35;;;;;;;0.42;92.71;99959.91;3490326;28;20044;-43
2020/12/15 03:36:30;;;;;;;32.10;13.70;;;;;;;0.42;92.81;99962.47;3497348;28;20429;-48
2020/12/15 03:38:12;;;;;;;31.90;13.07;;;;;;;0.43;92.66;99971.84;3492248;28;20072;-48
2020/12/15 03:39:53;;;;;;;30.42;13.65;;;;;;;0.43;92.65;99964.19;3496936;28;20642;-48
2020/12/15 03:41:45;;;;;;;32.40;14.45;;;;;;;0.43;92.50;99964.19;3490770;28;20045;-43
2020/12/15 03:43:27;;;;;;;30.50;12.77;;;;;;;0.42;92.59;99959.91;3483601;28;20072;-49
2020/12/15 03:45:09;;;;;;;30.42;13.57;;;;;;;0.42;92.41;99965.88;3487682;28;20498;-48
2020/12/15 03:46:51;;;;;;;35.50;15.05;;;;;;;0.42;92.40;99972.66;3483740;28;20148;-47
2020/12/15 03:48:32;;;;;;;38.53;14.65;;;;;;;0.41;92.75;99971.75;3496448;28;20078;-43
2020/12/15 03:50:13;;;;;;;33.70;14.98;;;;;;;0.41;92.43;99968.34;3495811;28;20083;-48
2020/12/15 03:51:55;;;;;;;36.00;14.73;;;;;;;0.41;92.27;99981.09;3494232;28;20048;-49
2020/12/15 03:53:37;;;;;;;36.30;14.32;;;;;;;0.40;92.40;99979.31;3496552;28;20366;-43
2020/12/15 03:55:21;;;;;;;29.75;13.77;;;;;;;0.40;92.32;99985.31;3494101;28;20052;-43
2020/12/15 03:57:03;;;;;;;;;;;;;;;0.41;92.68;99984.53;3495311;28;20053;-48
2020/12/15 03:58:44;;;;;;;32.05;13.32;;;;;;;0.42;92.45;99991.41;3496105;28;19931;-43
2020/12/15 04:00:26;;;;;;;35.45;14.15;;;;;;;0.43;92.80;99990.59;3495074;28;20040;-43
2020/12/15 04:02:07;;;;;;;30.45;13.82;;;;;;;0.43;92.85;99992.28;3496567;28;20049;-49
2020/12/15 04:03:49;;;;;;;36.80;14.73;;;;;;;0.44;92.55;99994.03;3494761;28;20048;-50
2020/12/15 04:05:30;;;;;;;32.38;13.18;;;;;;;0.44;92.67;99994.03;3495685;28;20053;-49
2020/12/15 04:07:11;;;;;;;34.38;14.55;;;;;;;0.45;92.78;99995.78;3496125;28;20141;-48
2020/12/15 04:08:54;;;;;;;43.15;16.27;;;;;;;0.46;92.52;100001.78;3496726;28;20102;-49
2020/12/15 04:10:35;;;;;;;39.50;15.10;;;;;;;0.46;92.80;100001.78;3493356;28;20052;-50
2020/12/15 04:12:18;;;;;;;36.20;14.48;;;;;;;0.46;92.45;99999.25;3484463;28;20508;-47
2020/12/15 04:13:59;;;;;;;29.98;13.15;;;;;;;0.47;92.68;100003.53;3490358;28;20045;-48
2020/12/15 04:15:40;;;;;;;38.22;14.32;;;;;;;0.47;92.92;100009.53;3482937;28;20083;-47
2020/12/15 04:17:22;;;;;;;33.47;13.85;;;;;;;0.48;92.86;100005.31;3488594;28;20054;-48
2020/12/15 04:19:04;;;;;;;36.83;15.30;;;;;;;0.49;92.74;100014.72;3490962;28;20045;-48
2020/12/15 04:20:45;;;;;;;37.55;16.15;;;;;;;0.49;92.79;100012.16;3487721;28;20056;-48
2020/12/15 04:22:27;;;;;;;41.88;16.58;;;;;;;0.47;92.74;100014.66;3488358;28;20040;-48
2020/12/15 04:24:10;;;;;;;33.85;14.93;;;;;;;0.45;92.75;100013.66;3487167;28;20053;-48
2020/12/15 04:25:54;;;;;;;40.38;17.33;;;;;;;0.43;92.69;100011.00;3489063;28;20081;-48
2020/12/15 04:27:35;;;;;;;;;;;;;;;0.43;92.58;100017.78;3490016;28;20052;-48
2020/12/15 04:29:16;;;;;;;36.95;13.68;;;;;;;0.41;92.27;100019.38;3489177;28;20023;-48
2020/12/15 04:30:58;;;;;;;44.15;15.73;;;;;;;0.40;92.33;100015.03;3490226;28;20110;-48
2020/12/15 04:32:39;;;;;;;40.75;16.23;;;;;;;0.39;92.77;100010.75;3488091;28;20433;-48
2020/12/15 04:34:21;;;;;;;38.70;14.80;;;;;;;0.38;92.79;100019.19;3488333;28;20049;-47
2020/12/15 04:36:03;;;;;;;35.60;14.98;;;;;;;0.38;92.92;100016.63;3489027;28;20114;-48
2020/12/15 04:37:45;;;;;;;42.10;16.45;;;;;;;0.39;92.77;100016.72;3488077;28;20048;-49
2020/12/15 04:39:27;;;;;;;40.35;16.55;;;;;;;0.41;92.93;100027.03;3488468;28;20053;-49
2020/12/15 04:41:09;;;;;;;41.30;15.37;;;;;;;0.40;92.96;100027.81;3486195;28;20040;-48
2020/12/15 04:42:51;;;;;;;39.40;15.60;;;;;;;0.43;92.96;100031.41;3488808;28;20654;-48
2020/12/15 04:44:34;;;;;;;43.50;16.95;;;;;;;0.45;92.64;100023.84;3487615;28;20053;-51
2020/12/15 04:46:21;;;;;;;36.97;14.55;;;;;;;0.45;93.06;100031.50;3488463;28;20045;-48
2020/12/15 04:48:05;;;;;;;36.88;15.05;;;;;;;0.46;92.97;100027.31;3488661;28;20405;-48
2020/12/15 04:50:00;;;;;;;35.85;15.07;;;;;;;0.46;93.00;100027.31;3488456;28;20080;-49
2020/12/15 04:51:56;;;;;;;38.83;16.45;;;;;;;0.45;92.73;100023.84;3487490;28;20055;-49
2020/12/15 04:53:44;;;;;;;35.92;14.93;;;;;;;0.47;92.68;100029.97;3489204;28;20075;-48
2020/12/15 04:55:26;;;;;;;29.77;13.82;;;;;;;0.47;92.99;100031.59;3489690;28;20052;-50
2020/12/15 04:57:17;;;;;;;33.50;14.75;;;;;;;0.47;92.94;100024.88;3487444;28;20490;-49
2020/12/15 04:58:59;;;;;;;34.22;13.82;;;;;;;0.48;92.64;100026.59;3487443;28;20532;-44
2020/12/15 05:00:41;;;;;;;33.25;15.40;;;;;;;0.47;92.94;100029.97;3488579;28;20045;-43
2020/12/15 05:02:25;;;;;;;37.20;14.52;;;;;;;0.48;93.00;100034.25;3490053;28;20059;-45
2020/12/15 05:04:08;;;;;;;33.38;13.27;;;;;;;0.49;92.79;100030.03;3486086;28;20060;-43
2020/12/15 05:05:50;;;;;;;32.70;13.80;;;;;;;0.49;92.99;100036.03;3489121;28;20524;-43
2020/12/15 05:07:38;;;;;;;31.95;12.93;;;;;;;0.50;92.62;100032.69;3485211;28;20142;-47
2020/12/15 05:09:28;;;;;;;27.90;13.00;;;;;;;0.50;92.70;100032.69;3489692;28;20058;-51
2020/12/15 05:11:10;;;;;;;30.02;13.95;;;;;;;0.49;92.65;100041.13;3487480;28;20087;-51
2020/12/15 05:12:52;;;;;;;31.10;13.48;;;;;;;0.49;92.63;100043.69;3489021;28;20056;-48
2020/12/15 05:14:34;;;;;;;33.25;14.00;;;;;;;0.48;92.85;100029.16;3487311;28;20579;-43
2020/12/15 05:16:15;;;;;;;30.65;13.25;;;;;;;0.50;92.58;100034.34;3485756;28;20040;-43
2020/12/15 05:18:01;;;;;;;30.95;12.70;;;;;;;0.50;92.93;100042.88;3486028;28;20056;-43
2020/12/15 05:19:44;;;;;;;32.33;13.32;;;;;;;0.51;92.83;100037.00;3487221;28;20498;-43
2020/12/15 05:21:25;;;;;;;26.25;12.23;;;;;;;0.51;92.72;100047.22;3487761;28;20044;-44
2020/12/15 05:23:06;;;;;;;33.00;13.43;;;;;;;0.51;92.81;100043.78;3488413;28;20140;-43
2020/12/15 05:24:49;;;;;;;30.23;12.45;;;;;;;0.51;92.94;100043.78;3488377;28;20056;-43
2020/12/15 05:26:31;;;;;;;32.42;13.98;;;;;;;0.51;92.62;100049.75;3487871;28;20041;-43
2020/12/15 05:28:14;;;;;;;29.00;12.55;;;;;;;0.51;92.63;100051.44;3486634;28;20132;-45
2020/12/15 05:30:07;;;;;;;30.00;13.35;;;;;;;0.49;92.45;100053.91;3489623;28;20417;-43
2020/12/15 05:31:52;;;;;;;34.10;13.50;;;;;;;0.48;92.54;100052.13;3487389;28;20049;-43
2020/12/15 05:33:34;;;;;;;24.23;11.88;;;;;;;0.48;92.77;100053.81;3490783;28;20054;-43
2020/12/15 05:35:23;;;;;;;29.52;13.63;;;;;;;0.48;92.52;100057.22;3487290;28;20501;-43
2020/12/15 05:37:05;;;;;;;28.92;12.85;;;;;;;0.48;92.66;100053.81;3487154;28;20056;-43
2020/12/15 05:38:56;;;;;;;26.75;12.02;;;;;;;0.49;92.56;100058.09;3486676;28;20052;-43
2020/12/15 05:40:39;;;;;;;31.67;14.48;;;;;;;0.48;92.79;100059.78;3488347;28;20048;-43
2020/12/15 05:42:22;;;;;;;28.35;11.82;;;;;;;0.48;92.94;100062.34;3488105;28;20040;-44
2020/12/15 05:44:03;;;;;;;26.90;11.93;;;;;;;0.48;92.72;100072.53;3485593;28;20097;-44
2020/12/15 05:45:49;;;;;;;28.15;13.45;;;;;;;0.48;92.81;100071.66;3487781;28;20048;-43
2020/12/15 05:47:32;;;;;;;29.05;12.82;;;;;;;0.47;92.68;100069.91;3486930;28;20135;-43
2020/12/15 05:49:14;;;;;;;33.03;13.30;;;;;;;0.46;92.85;100071.56;3488183;28;20148;-43
2020/12/15 05:50:57;;;;;;;28.85;14.38;;;;;;;0.46;92.68;100078.34;3489150;28;20048;-45
2020/12/15 05:52:38;;;;;;;29.00;13.45;;;;;;;0.47;92.73;100072.44;3488547;28;20097;-43
2020/12/15 05:54:20;;;;;;;30.05;13.88;;;;;;;0.48;92.71;100082.75;3487039;28;20048;-44
2020/12/15 05:56:04;;;;;;;29.85;12.98;;;;;;;0.48;92.78;100087.84;3488821;28;20055;-49
2020/12/15 05:57:47;;;;;;;38.00;14.50;;;;;;;0.48;92.91;100090.41;3488696;28;20540;-48
2020/12/15 05:59:29;;;;;;;36.50;14.77;;;;;;;0.49;92.60;100087.09;3489546;28;20049;-50
2020/12/15 06:01:10;;;;;;;35.78;15.13;;;;;;;0.48;92.52;100095.50;3484733;28;20419;-51
2020/12/15 06:02:59;;;;;;;32.85;15.27;;;;;;;0.49;92.72;100092.19;3487443;28;20088;-48
2020/12/15 06:04:40;;;;;;;35.97;15.52;;;;;;;0.50;92.70;100093.94;3487707;28;20071;-49
2020/12/15 06:06:23;;;;;;;38.17;17.05;;;;;;;0.50;92.97;100099.03;3488883;28;20122;-48
2020/12/15 06:08:06;;;;;;;35.50;16.23;;;;;;;0.51;92.69;100097.38;3487975;28;20051;-48
2020/12/15 06:09:50;;;;;;;36.42;15.10;;;;;;;0.51;92.53;100103.38;3487164;28;20489;-49
2020/12/15 06:11:33;;;;;;;40.70;17.20;;;;;;;0.52;92.60;100109.34;3488351;28;20072;-48
2020/12/15 06:13:15;;;;;;;41.85;17.58;;;;;;;0.52;92.56;100110.22;3487839;28;20045;-49
2020/12/15 06:14:56;;;;;;;39.63;17.08;;;;;;;0.51;92.76;100113.56;3489905;28;20044;-48
2020/12/15 06:16:39;;;;;;;39.05;18.08;;;;;;;0.51;92.71;100118.69;3487162;28;20564;-49
2020/12/15 06:18:21;;;;;;;42.33;17.88;;;;;;;0.50;92.71;100124.56;3491098;28;20040;-48
2020/12/15 06:20:03;;;;;;;31.48;15.27;;;;;;;0.49;92.57;100122.81;3486335;28;20571;-47
2020/12/15 06:21:47;;;;;;;41.17;16.65;;;;;;;0.49;92.74;100124.47;3486631;28;20076;-49
2020/12/15 06:23:29;;;;;;;39.85;16.85;;;;;;;0.51;92.84;100128.00;3487789;28;20079;-43
2020/12/15 06:25:10;;;;;;;36.22;16.38;;;;;;;0.51;92.72;100130.56;3488627;28;20499;-44
2020/12/15 06:27:00;;;;;;;40.85;17.60;;;;;;;0.51;92.99;100128.00;3488600;28;20513;-43
2020/12/15 06:28:42;;;;;;;39.13;18.00;;;;;;;0.51;92.57;100130.56;3487366;28;20477;-43
2020/12/15 06:30:28;;;;;;;36.10;17.33;;;;;;;0.51;92.61;100131.44;3485894;28;20094;-43
2020/12/15 06:32:18;;;;;;;39.03;16.42;;;;;;;0.51;92.87;100133.13;3491489;28;20071;-48
2020/12/15 06:34:02;;;;;;;38.13;17.50;;;;;;;0.50;92.94;100132.22;3490820;28;20049;-48
2020/12/15 06:35:45;;;;;;;41.38;17.35;;;;;;;0.51;92.92;100138.22;3491085;28;20051;-42
2020/12/15 06:37:29;;;;;;;54.00;19.60;;;;;;;0.51;92.72;100133.13;3489629;28;20044;-44
2020/12/15 06:39:13;;;;;;;40.10;17.02;;;;;;;0.53;92.82;100136.66;3489416;28;20498;-43
2020/12/15 06:40:55;;;;;;;46.08;18.65;;;;;;;0.51;92.92;100141.66;3488156;28;20115;-43
2020/12/15 06:42:36;;;;;;;35.83;15.30;;;;;;;0.52;92.84;100147.63;3489472;28;20080;-43
2020/12/15 06:44:30;;;;;;;41.15;17.75;;;;;;;0.51;92.52;100151.00;3486398;28;20053;-43
2020/12/15 06:46:11;;;;;;;34.00;15.13;;;;;;;0.51;92.82;100148.44;3489809;28;20490;-43
2020/12/15 06:47:58;;;;;;;37.03;16.27;;;;;;;0.50;92.79;100144.97;3486922;28;20065;-43
2020/12/15 06:49:40;;;;;;;36.22;16.52;;;;;;;0.50;92.69;100155.19;3487380;28;20076;-43
2020/12/15 06:51:29;;;;;;;37.10;16.45;;;;;;;0.50;92.65;100155.19;3486009;28;20049;-46
2020/12/15 06:53:13;;;;;;;43.17;16.73;;;;;;;0.50;92.58;100157.75;3490058;28;20052;-46
2020/12/15 06:54:56;;;;;;;44.47;18.10;;;;;;;0.50;92.70;100160.28;3488888;28;20071;-47
2020/12/15 06:56:38;;;;;;;39.00;18.30;;;;;;;0.51;92.44;100156.97;3488599;28;20470;-43
2020/12/15 06:58:22;;;;;;;44.17;17.55;;;;;;;0.51;92.73;100156.09;3490039;28;20141;-43
2020/12/15 07:00:07;;;;;;;40.22;17.70;;;;;;;0.52;92.62;100162.94;3490197;28;20056;-43
2020/12/15 07:01:49;;;;;;;42.25;18.20;;;;;;;0.53;92.86;100167.28;3492506;28;21012;-45
2020/12/15 07:03:36;;;;;;;42.05;18.50;;;;;;;0.53;92.69;100162.16;3492146;28;20052;-43
2020/12/15 07:05:23;;;;;;;46.38;18.02;;;;;;;0.52;92.83;100166.38;3488474;28;20514;-43
2020/12/15 07:07:04;;;;;;;45.40;18.45;;;;;;;0.54;92.90;100159.72;3485137;28;20520;-42
2020/12/15 07:08:56;;;;;;;49.60;18.85;;;;;;;0.57;93.07;100172.63;3487704;28;20052;-42
2020/12/15 07:10:41;;;;;;;41.35;18.70;;;;;;;0.57;92.96;100169.22;3484163;28;20088;-42
2020/12/15 07:12:22;;;;;;;37.05;16.77;;;;;;;0.60;92.65;100166.84;3489179;28;20135;-42
2020/12/15 07:14:05;;;;;;;42.55;16.17;;;;;;;0.60;92.74;100171.97;3489005;28;20087;-44
2020/12/15 07:15:47;;;;;;;40.57;16.43;;;;;;;0.61;93.02;100169.50;3486034;28;20053;-46
2020/12/15 07:17:30;;;;;;;34.92;15.50;;;;;;;0.64;92.85;100175.59;3484400;28;20282;-47
2020/12/15 07:19:11;;;;;;;33.08;15.63;;;;;;;0.64;92.67;100173.91;3490837;28;20413;-42
2020/12/15 07:20:53;;;;;;;38.20;15.30;;;;;;;0.66;92.80;100181.66;3483842;28;20087;-46
2020/12/15 07:22:35;;;;;;;34.42;15.43;;;;;;;0.65;92.46;100179.88;3494753;28;20048;-51
2020/12/15 07:24:17;;;;;;;40.08;17.17;;;;;;;0.66;92.79;100177.44;3497182;28;20083;-42
2020/12/15 07:25:58;;;;;;;37.00;15.88;;;;;;;0.68;92.76;100177.53;3493167;28;20048;-42
2020/12/15 07:27:41;;;;;;;43.67;18.23;;;;;;;0.67;92.54;100180.88;3497157;28;20053;-42
2020/12/15 07:29:22;;;;;;;44.47;17.42;;;;;;;0.67;92.40;100168.13;3488379;28;20052;-46
2020/12/15 07:31:05;;;;;;;38.45;17.35;;;;;;;0.65;92.55;100170.56;3484451;28;20083;-49
2020/12/15 07:32:48;;;;;;;37.15;16.80;;;;;;;0.65;92.49;100168.03;3489053;28;20052;-48
2020/12/15 07:34:29;;;;;;;34.30;16.73;;;;;;;0.65;92.33;100173.13;3484357;28;20045;-43
2020/12/15 07:36:17;;;;;;;42.53;17.75;;;;;;;0.66;92.36;100162.13;3487168;28;20052;-47
2020/12/15 07:38:03;;;;;;;47.97;19.08;;;;;;;0.67;92.54;100163.88;3485362;28;20501;-46
2020/12/15 07:39:45;;;;;;;47.97;19.60;;;;;;;0.68;92.48;100160.53;3495147;28;20044;-42
2020/12/15 07:41:26;;;;;;;52.08;22.42;;;;;;;0.70;92.34;100168.28;3494070;28;20139;-43
2020/12/15 07:43:08;;;;;;;45.75;20.75;;;;;;;0.69;92.20;100164.88;3496878;28;20104;-42
2020/12/15 07:44:57;;;;;;;53.55;22.00;;;;;;;0.69;92.51;100164.88;3496250;28;20519;-50
2020/12/15 07:46:45;;;;;;;51.83;21.85;;;;;;;0.70;92.42;100170.84;3487212;28;20045;-47
2020/12/15 07:48:29;;;;;;;47.00;20.25;;;;;;;0.74;92.37;100172.81;3490925;28;20044;-48
2020/12/15 07:50:15;;;;;;;44.00;20.00;;;;;;;0.74;92.29;100167.69;3497430;28;20462;-46
2020/12/15 07:51:56;;;;;;;50.08;19.40;;;;;;;0.74;92.53;100172.81;3493053;28;20126;-49
2020/12/15 07:53:38;;;;;;;49.50;19.80;;;;;;;0.74;92.46;100170.25;3497498;28;20045;-47
2020/12/15 07:55:20;;;;;;;42.97;18.90;;;;;;;0.72;92.39;100165.06;3493709;28;20052;-47